createdAt,value
2019-01-08T00:03:31.797Z,81.07
2019-01-08T00:06:20.558Z,80.94
2019-01-08T00:09:09.352Z,80.89
2019-01-08T00:11:58.151Z,81.23
2019-01-08T00:14:46.933Z,81.03
2019-01-08T00:17:35.776Z,80.95
2019-01-08T00:20:24.582Z,81.06
2019-01-08T00:23:13.345Z,80.90
2019-01-08T00:26:02.157Z,79.85
2019-01-08T00:28:50.912Z,79.92
2019-01-08T00:31:39.718Z,79.81
2019-01-08T00:34:28.477Z,79.67
2019-01-08T00:37:36.350Z,79.56
2019-01-08T00:40:25.132Z,79.53
2019-01-08T00:43:13.902Z,78.99
2019-01-08T00:46:02.688Z,79.38
2019-01-08T00:48:44.713Z,79.08
2019-01-08T00:51:52.518Z,79.42
2019-01-08T00:54:41.284Z,79.06
2019-01-08T00:57:30.057Z,79.45
2019-01-08T01:00:18.848Z,78.99
2019-01-08T01:03:07.641Z,79.03
2019-01-08T01:05:56.462Z,79.13
2019-01-08T01:08:45.277Z,79.25
2019-01-08T01:11:34.042Z,80.06
2019-01-08T01:14:22.812Z,80.27
2019-01-08T01:17:11.584Z,80.54
2019-01-08T01:20:00.355Z,81.76
2019-01-08T01:22:49.127Z,81.67
2019-01-08T01:25:37.971Z,82.27
2019-01-08T01:28:26.785Z,82.36
2019-01-08T01:31:15.578Z,82.68
2019-01-08T01:34:04.345Z,82.41
2019-01-08T01:36:53.122Z,82.58
2019-01-08T01:40:01.258Z,82.18
2019-01-08T01:42:50.049Z,82.07
2019-01-08T01:45:38.838Z,82.38
2019-01-08T01:48:18.524Z,82.69
2019-01-08T01:51:07.324Z,83.24
2019-01-08T01:53:56.097Z,83.30
2019-01-08T01:56:44.861Z,84.48
2019-01-08T01:59:33.627Z,85.04
2019-01-08T02:02:03.064Z,85.23
2019-01-08T02:04:32.486Z,85.73
2019-01-08T02:07:21.278Z,86.09
2019-01-08T05:14:49.366Z,88.09
2019-01-08T05:17:38.399Z,87.91
2019-01-08T05:20:27.157Z,88.08
2019-01-08T05:23:15.988Z,88.27
2019-01-08T05:26:04.742Z,87.88
2019-01-08T05:31:48.276Z,88.38
2019-01-08T05:34:37.080Z,88.33
2019-01-08T05:37:25.857Z,87.96
2019-01-08T05:40:33.655Z,87.79
2019-01-08T05:43:22.418Z,87.89
2019-01-08T05:45:51.842Z,87.85
2019-01-08T05:48:40.820Z,88.15
2019-01-08T05:51:10.354Z,88.32
2019-01-08T05:53:39.822Z,88.11
2019-01-08T05:56:09.302Z,88.34
2019-01-08T05:58:38.760Z,88.30
2019-01-08T06:01:08.210Z,88.37
2019-01-08T06:03:37.668Z,88.16
2019-01-08T06:06:07.793Z,88.54
2019-01-08T06:08:37.349Z,88.53
2019-01-08T06:11:06.824Z,88.18
2019-01-08T06:13:36.281Z,87.80
2019-01-08T06:16:05.807Z,87.63
2019-01-08T06:18:35.398Z,87.98
2019-01-08T06:21:04.835Z,88.48
2019-01-08T06:23:34.309Z,88.39
2019-01-08T06:26:03.761Z,88.14
2019-01-08T06:28:33.392Z,87.86
2019-01-08T06:31:02.839Z,87.89
2019-01-08T06:33:32.363Z,87.80
2019-01-08T06:36:01.810Z,87.64
2019-01-08T06:38:31.759Z,87.85
2019-01-08T06:41:02.922Z,87.75
2019-01-08T06:43:32.415Z,87.95
2019-01-08T06:46:01.905Z,88.02
2019-01-08T06:48:31.482Z,87.25
2019-01-08T06:51:01.302Z,87.81
2019-01-08T06:53:30.819Z,87.94
2019-01-08T06:56:00.272Z,87.55
2019-01-08T06:58:29.748Z,87.88
2019-01-08T07:00:59.256Z,87.58
2019-01-08T07:03:32.470Z,87.02
2019-01-08T07:06:02.033Z,87.39
2019-01-08T07:08:31.528Z,87.23
2019-01-08T07:11:00.981Z,87.51
2019-01-08T07:13:30.499Z,87.74
2019-01-08T07:15:59.950Z,87.72
2019-01-08T07:18:29.486Z,88.47
2019-01-08T07:20:58.961Z,87.86
2019-01-08T07:23:28.472Z,87.93
2019-01-08T07:25:57.959Z,88.18
2019-01-08T07:28:29.248Z,88.42
2019-01-08T07:30:58.847Z,88.09
2019-01-08T07:33:28.370Z,87.70
2019-01-08T07:35:57.948Z,88.11
2019-01-08T07:38:27.439Z,87.50
2019-01-08T07:40:56.885Z,87.26
2019-01-08T07:43:26.799Z,87.23
2019-01-08T07:45:56.281Z,87.08
2019-01-08T07:48:25.751Z,87.24
2019-01-08T07:50:55.238Z,87.07
2019-01-08T07:53:24.689Z,87.28
2019-01-08T07:55:54.219Z,86.98
2019-01-08T07:58:23.756Z,87.06
2019-01-08T08:00:53.244Z,86.53
2019-01-08T08:03:22.761Z,86.53
2019-01-08T08:05:52.294Z,86.88
2019-01-08T08:08:21.741Z,87.08
2019-01-08T08:10:51.254Z,87.26
2019-01-08T08:13:20.724Z,86.61
2019-01-08T08:15:50.582Z,86.88
2019-01-08T08:18:20.592Z,86.72
2019-01-08T08:20:50.507Z,86.53
2019-01-08T08:23:19.990Z,87.06
2019-01-08T08:25:49.462Z,86.83
2019-01-08T08:28:18.914Z,86.29
2019-01-08T08:30:48.395Z,86.41
2019-01-08T08:33:17.844Z,85.84
2019-01-08T08:35:47.486Z,85.78
2019-01-08T08:38:16.956Z,85.98
2019-01-08T08:40:46.419Z,85.69
2019-01-08T08:43:15.992Z,85.49
2019-01-08T08:45:45.457Z,85.64
2019-01-08T08:48:15.017Z,85.02
2019-01-08T08:50:44.598Z,84.95
2019-01-08T08:53:14.395Z,85.24
2019-01-08T08:55:44.511Z,84.87
2019-01-08T08:58:13.974Z,84.37
2019-01-08T09:00:43.454Z,83.89
2019-01-08T09:03:12.970Z,83.62
2019-01-08T09:05:42.518Z,83.12
2019-01-08T09:08:12.027Z,82.99
2019-01-08T09:10:41.530Z,82.74
2019-01-08T09:13:10.987Z,82.81
2019-01-08T09:15:40.534Z,82.55
2019-01-08T09:18:09.976Z,82.38
2019-01-08T09:20:40.990Z,81.93
2019-01-08T09:23:10.472Z,81.69
2019-01-08T09:25:39.992Z,81.39
2019-01-08T09:28:09.928Z,81.77
2019-01-08T09:30:39.744Z,82.02
2019-01-08T09:33:09.215Z,82.54
2019-01-08T09:35:38.688Z,83.74
2019-01-08T09:38:08.169Z,84.38
2019-01-08T09:40:37.656Z,85.16
2019-01-08T09:43:07.215Z,85.87
2019-01-08T09:45:36.666Z,86.25
2019-01-08T09:48:06.137Z,87.08
2019-01-08T09:50:35.629Z,87.04
2019-01-08T09:53:05.128Z,87.09
2019-01-08T09:55:34.599Z,86.09
2019-01-08T09:58:04.036Z,86.83
2019-01-08T10:00:33.515Z,86.54
2019-01-08T10:03:03.430Z,86.63
2019-01-08T10:05:33.558Z,85.94
2019-01-08T10:08:03.120Z,85.38
2019-01-08T10:10:32.625Z,85.01
2019-01-08T10:13:02.079Z,84.97
2019-01-08T10:15:31.643Z,84.60
2019-01-08T10:18:01.099Z,84.55
2019-01-08T10:20:30.577Z,83.93
2019-01-08T10:23:00.034Z,83.98
2019-01-08T10:25:29.984Z,83.55
2019-01-08T10:27:59.424Z,82.92
2019-01-08T10:30:28.962Z,82.61
2019-01-08T10:32:58.480Z,82.57
2019-01-08T10:35:27.942Z,82.66
2019-01-08T10:37:57.834Z,81.50
2019-01-08T10:40:28.054Z,80.81
2019-01-08T10:42:57.605Z,80.30
2019-01-08T10:45:46.432Z,80.28
2019-01-08T10:48:35.312Z,80.27
2019-01-08T10:51:24.177Z,80.31
2019-01-08T10:54:12.985Z,80.58
2019-01-08T10:57:01.870Z,79.08
2019-01-08T10:59:50.677Z,79.53
2019-01-08T11:02:39.532Z,79.24
2019-01-08T11:05:21.101Z,79.43
2019-01-08T11:07:50.592Z,80.57
2019-01-08T11:10:20.071Z,80.96
2019-01-08T11:12:49.530Z,81.41
2019-01-08T11:15:19.494Z,81.77
2019-01-08T11:17:48.951Z,82.60
2019-01-08T11:20:18.492Z,82.99
2019-01-08T11:22:47.948Z,83.60
2019-01-08T11:25:17.627Z,83.57
2019-01-08T11:27:47.090Z,84.38
2019-01-08T11:30:16.582Z,84.46
2019-01-08T11:32:46.167Z,84.47
2019-01-08T11:35:15.650Z,84.88
2019-01-08T11:37:45.132Z,85.40
2019-01-08T11:40:14.605Z,85.04
2019-01-08T11:42:44.086Z,84.17
2019-01-08T11:45:13.545Z,84.27
2019-01-08T11:47:43.023Z,83.06
2019-01-08T11:50:13.193Z,82.74
2019-01-08T11:52:43.227Z,81.54
2019-01-08T11:55:12.688Z,81.88
2019-01-08T11:57:43.686Z,80.99
2019-01-08T12:00:14.558Z,80.78
2019-01-08T12:02:47.871Z,79.95
2019-01-08T12:05:15.197Z,79.72
2019-01-08T12:07:44.704Z,79.21
2019-01-08T12:10:14.159Z,79.89
2019-01-08T12:12:43.661Z,79.77
2019-01-08T12:15:13.116Z,79.41
2019-01-08T12:17:42.599Z,79.29
2019-01-08T12:20:13.389Z,79.42
2019-01-08T12:22:42.858Z,79.53
2019-01-08T12:25:12.723Z,79.30
2019-01-08T12:27:42.266Z,78.87
2019-01-08T12:30:12.151Z,78.74
2019-01-08T12:32:41.630Z,78.50
2019-01-08T12:35:11.080Z,78.17
2019-01-08T12:37:42.121Z,77.78
2019-01-08T12:40:11.708Z,76.22
2019-01-08T12:42:41.197Z,76.57
2019-01-08T12:45:10.723Z,76.77
2019-01-08T12:47:40.201Z,76.42
2019-01-08T12:50:09.815Z,74.99
2019-01-08T12:52:39.439Z,74.50
2019-01-08T12:55:09.012Z,73.51
2019-01-08T12:57:38.965Z,73.97
2019-01-08T13:00:11.396Z,73.94
2019-01-08T13:02:40.908Z,74.27
2019-01-08T13:05:10.399Z,74.20
2019-01-08T13:07:39.907Z,73.86
2019-01-08T13:10:09.732Z,73.40
2019-01-08T13:12:39.284Z,73.39
2019-01-08T13:15:08.859Z,71.95
2019-01-08T13:17:38.339Z,70.15
2019-01-08T13:20:09.000Z,69.18
2019-01-08T13:22:38.506Z,67.65
2019-01-08T13:25:08.677Z,67.05
2019-01-08T13:27:38.184Z,68.12
2019-01-08T13:30:09.194Z,68.67
2019-01-08T13:32:38.747Z,68.10
2019-01-08T13:35:08.258Z,69.01
2019-01-08T13:37:37.829Z,69.34
2019-01-08T13:40:07.774Z,70.08
2019-01-08T13:42:37.271Z,70.63
2019-01-08T13:45:08.564Z,69.55
2019-01-08T13:47:38.109Z,69.73
2019-01-08T13:50:09.434Z,69.71
2019-01-08T13:52:38.980Z,70.09
2019-01-08T13:55:08.600Z,69.94
2019-01-08T13:57:38.120Z,69.93
2019-01-08T14:00:09.556Z,70.27
2019-01-08T14:02:39.644Z,70.28
2019-01-08T14:05:09.268Z,69.89
2019-01-08T14:07:38.763Z,70.39
2019-01-08T14:10:08.775Z,70.76
2019-01-08T14:12:39.216Z,70.98
2019-01-08T14:15:08.715Z,70.98
2019-01-08T14:17:38.212Z,71.01
2019-01-08T14:20:09.117Z,70.98
2019-01-08T14:22:38.626Z,71.17
2019-01-08T14:25:08.352Z,71.64
2019-01-08T14:27:37.886Z,71.31
2019-01-08T14:30:10.418Z,71.62
2019-01-08T14:32:40.882Z,71.75
2019-01-08T14:35:10.988Z,71.72
2019-01-08T14:37:41.005Z,71.86
2019-01-08T14:40:10.533Z,71.90
2019-01-08T14:42:40.040Z,72.39
2019-01-08T14:45:09.564Z,71.97
2019-01-08T14:47:39.016Z,71.60
2019-01-08T14:50:09.093Z,71.93
2019-01-08T14:52:38.653Z,72.47
2019-01-08T14:55:08.179Z,72.80
2019-01-08T14:57:37.704Z,72.63
2019-01-08T15:00:10.044Z,72.57
2019-01-08T15:02:39.517Z,72.66
2019-01-08T15:05:09.100Z,72.61
2019-01-08T15:07:38.557Z,73.37
2019-01-08T15:10:09.733Z,73.16
2019-01-08T15:12:39.720Z,73.19
2019-01-08T15:15:09.362Z,73.76
2019-01-08T15:17:38.851Z,73.54
2019-01-08T15:20:08.857Z,74.13
2019-01-08T15:22:38.441Z,73.87
2019-01-08T15:25:07.980Z,74.25
2019-01-08T15:27:37.425Z,74.23
2019-01-08T15:30:10.304Z,74.27
2019-01-08T15:32:39.740Z,74.63
2019-01-08T15:35:09.226Z,74.41
2019-01-08T15:37:38.721Z,74.44
2019-01-08T15:40:08.324Z,75.12
2019-01-08T15:42:37.833Z,75.11
2019-01-08T15:45:07.917Z,75.02
2019-01-08T15:47:38.035Z,74.24
2019-01-08T15:50:08.810Z,74.25
2019-01-08T15:52:38.319Z,74.66
2019-01-08T15:55:07.784Z,74.88
2019-01-08T15:57:37.238Z,74.41
2019-01-08T16:00:10.334Z,74.79
2019-01-08T16:02:39.843Z,74.73
2019-01-08T16:05:10.379Z,74.44
2019-01-08T16:07:40.038Z,74.49
2019-01-08T16:10:09.615Z,74.51
2019-01-08T16:12:39.142Z,74.76
2019-01-08T16:15:09.679Z,75.09
2019-01-08T16:17:39.172Z,74.80
2019-01-08T16:20:09.072Z,74.88
2019-01-08T16:22:38.885Z,75.32
2019-01-08T16:25:08.726Z,75.35
2019-01-08T16:27:38.213Z,75.46
2019-01-08T16:30:08.862Z,75.23
2019-01-08T16:32:38.367Z,74.99
2019-01-08T16:35:07.854Z,74.74
2019-01-08T16:37:37.304Z,74.95
2019-01-08T16:40:10.028Z,74.88
2019-01-08T16:42:39.506Z,75.65
2019-01-08T16:45:09.068Z,75.74
2019-01-08T16:47:38.567Z,75.68
2019-01-08T16:50:08.461Z,75.92
2019-01-08T16:52:38.026Z,76.21
2019-01-08T16:55:07.590Z,76.39
2019-01-08T16:57:37.500Z,76.07
2019-01-08T17:00:12.491Z,76.03
2019-01-08T17:02:41.995Z,75.99
2019-01-08T17:05:11.470Z,75.76
2019-01-08T17:07:41.014Z,75.54
2019-01-08T17:10:11.032Z,75.75
2019-01-08T17:12:43.649Z,76.33
2019-01-08T17:15:13.113Z,76.59
2019-01-08T17:18:01.954Z,76.84
2019-01-08T17:20:44.218Z,77.34
2019-01-08T17:23:13.825Z,77.12
2019-01-08T17:25:52.087Z,77.84
2019-01-08T17:28:21.675Z,78.20
2019-01-08T17:30:51.202Z,78.35
2019-01-08T17:33:20.746Z,77.97
2019-01-08T17:35:50.245Z,78.09
2019-01-08T17:38:19.796Z,78.67
2019-01-08T17:40:49.253Z,78.96
2019-01-08T17:43:18.870Z,79.04
2019-01-08T17:45:48.445Z,80.12
2019-01-08T17:48:18.086Z,80.51
2019-01-08T17:50:47.679Z,80.47
2019-01-08T17:53:18.610Z,84.16
2019-01-08T17:55:49.046Z,80.63
2019-01-08T17:58:36.544Z,81.11
2019-01-08T18:01:17.701Z,81.23
2019-01-08T18:03:48.579Z,81.60
2019-01-08T18:06:18.098Z,81.96
2019-01-08T18:08:47.689Z,81.85
2019-01-08T18:11:17.211Z,82.53
2019-01-08T18:13:47.835Z,82.67
2019-01-08T18:16:17.427Z,82.83
2019-01-08T18:18:47.045Z,82.90
2019-01-08T18:21:16.575Z,83.35
2019-01-08T18:23:46.273Z,83.69
2019-01-08T18:26:15.786Z,83.81
2019-01-08T18:28:45.431Z,83.90
2019-01-08T18:31:14.938Z,83.87
2019-01-08T18:33:51.495Z,84.42
2019-01-08T18:36:15.835Z,86.56
2019-01-08T18:38:45.372Z,84.20
2019-01-08T18:41:14.963Z,83.32
2019-01-08T18:43:44.542Z,83.47
2019-01-08T18:46:14.084Z,83.39
2019-01-08T18:48:43.666Z,84.20
2019-01-08T18:51:13.249Z,84.38
2019-01-08T18:53:43.672Z,84.05
2019-01-08T18:56:13.268Z,84.19
2019-01-08T18:58:42.833Z,84.12
2019-01-08T19:01:12.453Z,83.71
2019-01-08T19:03:42.001Z,84.37
2019-01-08T19:06:11.544Z,83.99
2019-01-08T19:09:27.155Z,84.33
2019-01-08T19:11:57.074Z,83.86
2019-01-08T19:14:30.950Z,92.32
2019-01-08T19:17:00.722Z,83.47
2019-01-08T19:19:30.246Z,82.10
2019-01-08T19:21:59.736Z,82.40
2019-01-08T19:24:29.302Z,82.22
2019-01-08T19:26:58.843Z,82.47
2019-01-08T19:29:28.317Z,82.14
2019-01-08T19:31:59.372Z,82.19
2019-01-08T19:34:28.941Z,81.14
2019-01-08T19:36:58.469Z,81.34
2019-01-08T19:39:28.005Z,82.08
2019-01-08T19:41:57.429Z,81.20
2019-01-08T19:44:27.153Z,81.10
2019-01-08T19:46:56.621Z,80.87
2019-01-08T19:49:26.228Z,80.48
2019-01-08T19:51:55.718Z,80.44
2019-01-08T19:54:25.304Z,80.25
2019-01-08T19:56:54.725Z,79.54
2019-01-08T19:59:24.211Z,80.24
2019-01-08T20:01:53.627Z,80.47
2019-01-08T20:04:23.156Z,80.63
2019-01-08T20:06:52.586Z,79.87
2019-01-08T20:09:25.488Z,79.28
2019-01-08T20:11:53.198Z,79.10
2019-01-08T20:14:23.066Z,79.35
2019-01-08T20:16:52.524Z,79.65
2019-01-08T20:19:21.986Z,79.37
2019-01-08T20:21:51.423Z,78.88
2019-01-08T20:24:20.933Z,79.67
2019-01-08T20:26:50.455Z,80.21
2019-01-08T20:29:19.933Z,79.23
2019-01-08T20:31:49.358Z,79.72
2019-01-08T20:34:26.433Z,79.91
2019-01-08T20:36:49.999Z,80.19
2019-01-08T20:39:19.478Z,80.08
2019-01-08T20:41:48.910Z,79.70
2019-01-08T20:44:18.364Z,79.91
2019-01-08T20:46:47.810Z,79.78
2019-01-08T20:49:17.272Z,79.76
2019-01-08T20:51:46.699Z,79.90
2019-01-08T20:54:16.190Z,80.17
2019-01-08T20:56:46.591Z,79.03
2019-01-08T20:59:16.068Z,79.06
2019-01-08T21:01:45.505Z,79.55
2019-01-08T21:04:15.027Z,80.26
2019-01-08T21:06:44.531Z,79.93
2019-01-08T21:09:14.049Z,80.42
2019-01-08T21:11:43.522Z,81.02
2019-01-08T21:14:12.997Z,81.79
2019-01-08T21:16:42.454Z,81.16
2019-01-08T21:19:11.942Z,80.99
2019-01-08T21:21:41.374Z,81.26
2019-01-08T21:24:10.847Z,81.47
2019-01-08T21:26:40.286Z,81.54
2019-01-08T21:29:09.808Z,81.28
2019-01-08T21:31:39.262Z,81.56
2019-01-08T21:34:08.769Z,80.45
2019-01-08T21:36:38.257Z,81.13
2019-01-08T21:39:07.739Z,81.90
2019-01-08T21:41:37.254Z,82.00
2019-01-08T21:44:06.674Z,81.85
2019-01-08T21:46:36.108Z,82.33
2019-01-08T21:49:05.563Z,82.05
2019-01-08T21:51:34.987Z,82.04
2019-01-08T21:54:04.422Z,81.59
2019-01-08T21:56:34.012Z,81.26
2019-01-08T21:59:03.515Z,80.63
2019-01-08T22:01:33.067Z,81.12
2019-01-08T22:04:02.518Z,79.90
2019-01-08T22:06:32.056Z,80.48
2019-01-08T22:09:01.492Z,80.36
2019-01-08T22:11:30.918Z,79.97
2019-01-08T22:14:00.359Z,80.57
2019-01-08T22:16:29.795Z,80.85
2019-01-08T22:18:59.257Z,81.23
2019-01-08T22:21:28.698Z,81.63
2019-01-08T22:23:58.134Z,82.10
2019-01-08T22:26:27.597Z,81.96
2019-01-08T22:29:02.199Z,81.48
2019-01-08T22:31:31.840Z,82.56
2019-01-08T22:34:01.466Z,83.14
2019-01-08T22:36:31.884Z,82.83
2019-01-08T22:39:05.160Z,82.27
2019-01-08T22:41:34.652Z,81.62
2019-01-08T22:44:05.976Z,81.65
2019-01-08T22:46:35.585Z,81.28
2019-01-08T22:49:05.147Z,80.83
2019-01-08T22:51:34.573Z,79.76
2019-01-08T22:54:04.019Z,79.46
2019-01-08T22:56:33.423Z,79.82
2019-01-08T22:59:23.728Z,79.41
2019-01-08T23:01:53.430Z,79.09
2019-01-08T23:04:23.071Z,79.63
2019-01-08T23:06:52.502Z,79.58
2019-01-08T23:09:22.360Z,79.54
2019-01-08T23:11:51.783Z,79.67
2019-01-08T23:14:21.208Z,79.76
2019-01-08T23:16:50.705Z,80.05
2019-01-08T23:19:20.116Z,80.31
2019-01-08T23:21:49.562Z,80.57
2019-01-08T23:24:38.371Z,78.84
2019-01-08T23:27:27.124Z,78.74
2019-01-08T23:30:15.903Z,78.14
2019-01-08T23:33:04.740Z,77.52
2019-01-08T23:35:54.074Z,77.21
2019-01-08T23:38:24.067Z,76.74
2019-01-08T23:40:53.987Z,75.92
2019-01-08T23:43:23.572Z,77.00
2019-01-08T23:45:53.025Z,77.80
2019-01-08T23:48:22.511Z,78.73
2019-01-08T23:50:52.143Z,79.19
2019-01-08T23:53:32.052Z,79.58
2019-01-08T23:56:03.748Z,80.10
2019-01-08T23:58:33.216Z,80.67
